Hlavní strana
METAR-TAF:

METAR-TAF

Letiště :

Columbus, Ohio, Spojené státy americké

zeměpisná šířka: 39-59-42N, zeměpisná délka: 082-52-35W, výška: 248 m

Aktuální stav počasí

Zpráva byla vytvořena před 44 minutami, v 02:51 UTC
Jižní vítr 5 kt
Teplota -3°C
Vlhkost vzduchu 54%
Tlak 1031 hPa
Viditelnost: 16.1 km
Jasno

METAR: KCMH 220251Z 18005KT 10SM CLR M03/M11 A3045 RMK AO2 SLP324 T10281106 58010

Čas: 22:35 (03:35 UTC)

Předpověď počasí

Zpráva byla vytvořena před 4 hodinami a 15 minutami, v 23:20 UTC
Předpověď platná od 22 v 00 UTC do 22 v 24 UTC
Jihojihozápadní vítr 6 kt
Viditelnost: 10 km
Jasno
Od 22 v 1500 UTC
Jihozápadní vítr 12 kt
Viditelnost: 10 km
Jasno

TAF: KCMH 212320Z 2200/2224 21006KT P6SM SKC FM221500 23012KT P6SM SKC

Stav a předpovědi počasí z více než 4 000 letišť (zprávy METAR a TAF).

Červené a žluté tečky na mapě představují dostupné meteorologické stanice.

Když kurzor umístíte na tečku, zobrazí se název stanice.

Pak kliknutím zobrazíte stav a předpověď počasí.

Chcete-li změnit mapu, kliknutím na zelené tlačítko se znaménkem +mapu přiblížíte, kliknutím na zelené tlačítko se znaménkem – mapu oddálíte a kliknutím na zelené šipky přejdete na sousední mapy.


METAR-TAF: